Time;durP1;ratioP1;P1;durP2;ratioP2;P2;SDS_P1;SDS_P2;PMS_P1;PMS_P2;Temp;Humidity;BMP_temperature;BMP_pressure;BME280_temperature;BME280_humidity;BME280_pressure;Samples;Min_cycle;Max_cycle;Signal;HPM_P1;HPM_P2
2023/08/10 00:02:13;;;;;;;3.83;1.10;;;;;;;24.95;43.18;102200.41;5026389;28;20398;-71
2023/08/10 00:04:39;;;;;;;2.50;1.13;;;;;;;25.05;42.41;102206.16;5009214;28;20018;-71
2023/08/10 00:07:05;;;;;;;1.45;1.00;;;;;;;25.04;43.75;102199.94;5023396;28;20029;-70
2023/08/10 00:09:30;;;;;;;3.53;1.30;;;;;;;24.80;44.60;102201.16;5029751;28;20029;-71
2023/08/10 00:11:58;;;;;;;4.00;1.23;;;;;;;24.99;44.57;102190.41;5034850;28;20033;-71
2023/08/10 00:14:24;;;;;;;7.43;1.38;;;;;;;25.28;43.69;102188.09;5014303;28;20497;-71
2023/08/10 00:16:50;;;;;;;4.28;1.48;;;;;;;24.89;44.82;102188.22;5026313;28;20029;-71
2023/08/10 00:19:15;;;;;;;2.92;1.10;;;;;;;24.82;45.37;102192.13;5028696;28;20083;-71
2023/08/10 00:21:41;;;;;;;3.83;1.27;;;;;;;24.80;45.70;102198.47;5028940;28;20033;-71
2023/08/10 00:24:06;;;;;;;3.67;1.15;;;;;;;24.81;45.39;102195.75;5023480;28;20493;-71
2023/08/10 00:26:32;;;;;;;3.92;1.10;;;;;;;24.84;45.55;102190.25;5029886;28;20105;-71
2023/08/10 00:28:58;;;;;;;1.15;1.05;;;;;;;25.24;44.77;102190.91;5044646;28;20429;-71
2023/08/10 00:31:23;;;;;;;1.52;0.88;;;;;;;25.15;44.50;102187.84;5029980;28;20039;-71
2023/08/10 00:33:49;;;;;;;1.42;1.00;;;;;;;24.89;45.25;102192.69;5027997;28;20427;-71
2023/08/10 00:36:14;;;;;;;2.78;1.20;;;;;;;24.86;44.70;102188.34;5030609;28;20024;-71
2023/08/10 00:38:40;;;;;;;1.90;1.20;;;;;;;24.94;44.28;102190.66;5027405;28;20116;-71
2023/08/10 00:41:06;;;;;;;3.97;1.48;;;;;;;24.66;45.63;102185.78;5010226;28;20509;-71
2023/08/10 00:43:32;;;;;;;1.77;1.13;;;;;;;25.12;44.60;102183.50;5015669;28;20022;-71
2023/08/10 00:45:59;;;;;;;1.73;1.33;;;;;;;24.85;44.67;102192.00;5030116;28;20087;-71
2023/08/10 00:48:25;;;;;;;1.25;1.00;;;;;;;25.12;44.95;102182.66;5040945;28;20560;-71
2023/08/10 00:50:52;;;;;;;1.70;1.08;;;;;;;24.78;45.47;102195.88;5009094;28;20517;-71
2023/08/10 00:53:18;;;;;;;1.95;1.33;;;;;;;24.56;45.68;102196.91;5031763;28;20017;-71
2023/08/10 00:55:46;;;;;;;3.28;1.08;;;;;;;24.30;46.33;102198.09;5029228;28;20044;-71
2023/08/10 00:58:12;;;;;;;7.10;1.20;;;;;;;24.47;45.97;102208.03;5011904;28;20045;-71
2023/08/10 01:00:38;;;;;;;7.70;1.85;;;;;;;24.26;46.40;102209.00;5031202;28;20017;-72
2023/08/10 01:03:04;;;;;;;2.85;1.42;;;;;;;24.80;45.47;102195.78;5011409;28;20036;-72
2023/08/10 01:05:35;;;;;;;2.17;1.27;;;;;;;24.56;45.55;102202.25;5038120;28;20063;-71
2023/08/10 01:08:11;;;;;;;4.63;1.20;;;;;;;24.43;46.28;102190.41;5025295;28;20212;-71
2023/08/10 01:10:42;;;;;;;4.43;1.55;;;;;;;24.19;46.10;102195.97;5027032;28;20040;-71
2023/08/10 01:13:30;;;;;;;3.65;1.48;;;;;;;24.25;46.17;102196.59;5025491;28;20030;-71
2023/08/10 01:16:00;;;;;;;2.30;1.42;;;;;;;24.62;45.79;102190.44;5024745;28;20033;-71
2023/08/10 01:18:27;;;;;;;2.00;1.10;;;;;;;24.35;46.20;102193.41;5011447;28;20037;-71
2023/08/10 01:21:01;;;;;;;2.42;1.50;;;;;;;24.08;46.67;102195.56;5027879;28;20021;-71
2023/08/10 01:23:40;;;;;;;2.80;1.30;;;;;;;24.43;46.35;102190.41;5028470;28;20120;-72
2023/08/10 01:26:08;;;;;;;1.80;1.23;;;;;;;23.99;46.56;102193.34;5028868;28;20066;-71
2023/08/10 01:28:37;;;;;;;1.10;1.00;;;;;;;24.15;46.80;102199.72;5047444;28;20036;-71
2023/08/10 01:31:04;;;;;;;4.68;1.35;;;;;;;24.25;46.75;102204.59;5050548;28;20020;-71
2023/08/10 01:33:30;;;;;;;3.85;1.30;;;;;;;24.13;47.01;102193.56;5016507;28;20040;-71
2023/08/10 01:35:56;;;;;;;2.92;1.65;;;;;;;24.09;47.78;102185.78;5021531;28;20485;-71
2023/08/10 01:38:21;;;;;;;2.10;1.42;;;;;;;24.21;47.41;102186.06;5023044;28;20053;-71
2023/08/10 01:40:51;;;;;;;4.00;1.60;;;;;;;24.20;47.40;102178.97;5047894;28;20025;-71
2023/08/10 01:43:17;;;;;;;2.80;1.80;;;;;;;24.11;48.10;102184.75;5049366;28;20021;-71
2023/08/10 01:45:51;;;;;;;2.92;1.38;;;;;;;24.13;47.32;102182.03;5063348;28;20027;-71
2023/08/10 01:48:39;;;;;;;2.05;1.30;;;;;;;24.22;47.08;102182.47;5032871;28;20120;-71
2023/08/10 01:51:07;;;;;;;1.33;1.17;;;;;;;24.22;47.21;102182.47;5032966;28;20021;-71
2023/08/10 01:53:36;;;;;;;3.95;1.75;;;;;;;24.07;47.87;102185.84;5033921;28;20109;-71
2023/08/10 01:56:02;;;;;;;2.20;1.80;;;;;;;24.23;47.71;102188.66;5044354;28;20036;-72
2023/08/10 01:58:27;;;;;;;1.98;1.33;;;;;;;23.81;48.00;102177.16;5012097;28;20385;-72
2023/08/10 02:00:53;;;;;;;6.95;1.63;;;;;;;23.66;48.91;102180.53;5018820;28;20022;-71
2023/08/10 02:03:19;;;;;;;8.65;1.77;;;;;;;23.60;49.05;102178.13;5032520;28;20029;-71
2023/08/10 02:05:44;;;;;;;3.05;1.30;;;;;;;23.52;49.02;102187.31;5047047;28;20418;-71
2023/08/10 02:08:10;;;;;;;2.10;1.30;;;;;;;23.63;49.06;102183.31;5031317;28;20025;-71
2023/08/10 02:10:35;;;;;;;3.95;1.60;;;;;;;23.54;49.21;102180.09;5048305;28;20025;-71
2023/08/10 02:13:01;;;;;;;1.85;1.30;;;;;;;23.77;48.66;102180.03;5033882;28;20393;-71
2023/08/10 02:15:27;;;;;;;2.67;1.45;;;;;;;23.63;49.49;102184.19;5047771;28;20025;-71
2023/08/10 02:17:52;;;;;;;2.40;1.40;;;;;;;23.54;49.67;102180.09;5047952;28;20029;-71
2023/08/10 02:20:18;;;;;;;1.45;1.15;;;;;;;23.48;49.62;102175.06;5030411;28;20025;-71
2023/08/10 02:22:51;;;;;;;1.30;1.15;;;;;;;23.71;49.07;102174.03;5013150;28;20025;-71
2023/08/10 02:25:18;;;;;;;3.72;1.73;;;;;;;23.52;49.44;102182.00;5029404;28;20072;-71
2023/08/10 02:27:44;;;;;;;2.20;1.83;;;;;;;23.93;48.04;102185.59;5044277;28;20440;-71
2023/08/10 02:30:10;;;;;;;2.10;1.40;;;;;;;23.47;49.95;102189.31;5017220;28;20454;-71
2023/08/10 02:32:37;;;;;;;5.95;1.65;;;;;;;23.46;49.89;102186.72;5032414;28;20033;-70
2023/08/10 02:35:06;;;;;;;3.75;1.80;;;;;;;23.31;50.76;102196.25;5032193;28;20048;-71
2023/08/10 02:37:37;;;;;;;4.50;1.73;;;;;;;23.21;51.03;102193.97;5032902;28;20108;-71
2023/08/10 02:40:04;;;;;;;4.77;1.80;;;;;;;23.50;49.76;102194.50;5035731;28;20026;-72
2023/08/10 02:42:30;;;;;;;5.03;1.90;;;;;;;23.57;49.92;102194.25;5031733;28;20021;-71
2023/08/10 02:44:56;;;;;;;2.47;1.80;;;;;;;23.42;50.27;102207.31;5030719;28;20033;-71
2023/08/10 02:47:21;;;;;;;3.65;1.95;;;;;;;23.52;50.07;102208.69;5030780;28;20064;-71
2023/08/10 02:49:47;;;;;;;2.88;1.95;;;;;;;23.23;51.08;102214.38;5033995;28;20025;-71
2023/08/10 02:52:12;;;;;;;3.22;1.70;;;;;;;23.68;50.16;102208.00;5031172;28;20033;-71
2023/08/10 02:54:38;;;;;;;2.65;1.58;;;;;;;23.44;50.46;102205.47;5030577;28;20037;-71
2023/08/10 02:57:03;;;;;;;3.53;1.88;;;;;;;23.20;50.90;102212.69;5036200;28;20049;-71
2023/08/10 02:59:29;;;;;;;2.40;1.80;;;;;;;23.58;50.00;102201.34;5041876;28;20477;-71
2023/08/10 03:01:54;;;;;;;3.63;2.40;;;;;;;23.18;51.06;102199.44;5029574;28;20645;-72
2023/08/10 03:04:20;;;;;;;4.60;1.70;;;;;;;23.41;50.69;102200.28;5032090;28;20064;-71
2023/08/10 03:06:45;;;;;;;2.92;1.60;;;;;;;23.43;50.54;102202.88;5030536;28;20557;-71
2023/08/10 03:09:11;;;;;;;2.60;1.77;;;;;;;23.43;50.27;102198.38;5030918;28;20036;-70
2023/08/10 03:11:36;;;;;;;3.00;1.80;;;;;;;23.65;50.21;102203.66;5017893;28;20068;-71
2023/08/10 03:14:02;;;;;;;5.15;1.90;;;;;;;23.52;50.06;102203.34;5029710;28;20029;-72
2023/08/10 03:16:29;;;;;;;2.55;1.70;;;;;;;23.86;49.17;102204.53;5024443;28;20025;-72
2023/08/10 03:18:55;;;;;;;5.95;2.05;;;;;;;23.31;50.86;102207.75;5010470;28;20365;-72
2023/08/10 03:21:20;;;;;;;3.78;1.55;;;;;;;23.35;51.29;102204.03;5010683;28;20446;-71
2023/08/10 03:23:46;;;;;;;5.43;2.22;;;;;;;23.29;51.49;102206.13;5016517;28;20473;-71
2023/08/10 03:26:12;;;;;;;2.10;1.75;;;;;;;23.60;51.00;102202.13;5029940;28;20021;-71
2023/08/10 03:28:37;;;;;;;2.17;1.95;;;;;;;23.75;50.08;102204.13;5025735;28;20064;-72
2023/08/10 03:31:02;;;;;;;2.13;1.58;;;;;;;23.99;49.51;102201.34;5041696;28;20120;-71
2023/08/10 03:33:28;;;;;;;5.45;2.10;;;;;;;23.86;49.93;102201.88;5029918;28;20444;-71
2023/08/10 03:35:54;;;;;;;2.67;1.90;;;;;;;24.08;49.74;102197.38;5024041;28;20504;-72
2023/08/10 03:38:20;;;;;;;2.50;1.85;;;;;;;24.15;49.66;102199.72;5010204;28;20466;-71
2023/08/10 03:40:45;;;;;;;2.35;1.60;;;;;;;24.05;49.56;102195.72;5026081;28;20029;-71
2023/08/10 03:43:11;;;;;;;2.58;2.03;;;;;;;23.96;50.28;102196.13;5030275;28;20055;-71
2023/08/10 03:45:36;;;;;;;2.45;2.00;;;;;;;24.07;49.38;102198.31;5028879;28;20072;-71
2023/08/10 03:48:02;;;;;;;2.30;1.75;;;;;;;24.27;48.83;102194.72;5029725;28;20477;-71
2023/08/10 03:50:28;;;;;;;2.78;2.13;;;;;;;24.34;48.89;102197.03;5029424;28;20094;-71
2023/08/10 03:52:54;;;;;;;3.25;1.80;;;;;;;24.32;48.70;102187.38;5045243;28;20026;-71
2023/08/10 03:55:19;;;;;;;4.95;1.88;;;;;;;24.04;49.17;102193.97;5030272;28;20021;-71
2023/08/10 03:57:45;;;;;;;5.70;2.00;;;;;;;24.39;48.30;102202.16;5021444;28;20406;-71
2023/08/10 04:00:13;;;;;;;2.75;2.13;;;;;;;24.42;48.23;102198.50;5019761;28;20303;-71
2023/08/10 04:02:41;;;;;;;3.35;2.00;;;;;;;23.91;49.84;102198.16;5009629;28;20450;-71
2023/08/10 04:05:07;;;;;;;3.13;1.90;;;;;;;23.90;49.45;102196.41;5009215;28;20034;-71
2023/08/10 04:07:37;;;;;;;4.55;2.38;;;;;;;24.19;48.69;102206.66;5038444;28;20037;-71
2023/08/10 04:10:05;;;;;;;2.95;1.63;;;;;;;23.72;49.27;102206.94;5010972;28;20030;-71
2023/08/10 04:12:38;;;;;;;4.40;2.30;;;;;;;23.97;48.98;102205.88;5028430;28;20466;-71
2023/08/10 04:15:06;;;;;;;;;;;;;;;24.25;48.79;102212.63;5012435;28;20029;-71
2023/08/10 04:17:32;;;;;;;2.97;1.77;;;;;;;24.05;48.89;102211.72;5029027;28;19920;-71
2023/08/10 04:19:57;;;;;;;4.45;2.45;;;;;;;23.65;49.89;102202.81;5029725;28;20025;-71
2023/08/10 04:22:23;;;;;;;4.32;2.33;;;;;;;23.97;49.57;102203.19;5030261;28;20036;-71
2023/08/10 04:24:50;;;;;;;3.00;2.10;;;;;;;23.86;50.00;102201.88;5044921;28;20036;-71
2023/08/10 04:27:16;;;;;;;4.45;2.25;;;;;;;23.79;50.22;102205.72;5031316;28;20057;-71
2023/08/10 04:29:44;;;;;;;6.10;2.30;;;;;;;23.55;50.67;102211.19;5030257;28;20511;-72
2023/08/10 04:32:10;;;;;;;3.45;2.03;;;;;;;23.63;50.77;102204.66;5038319;28;20397;-71
2023/08/10 04:34:36;;;;;;;3.30;2.33;;;;;;;23.57;50.87;102210.28;5028996;28;20037;-72
2023/08/10 04:37:02;;;;;;;3.17;2.40;;;;;;;23.98;50.04;102205.81;5013529;28;20117;-71
2023/08/10 04:39:27;;;;;;;5.25;2.67;;;;;;;23.71;51.10;102211.41;5009597;28;20641;-72
2023/08/10 04:41:53;;;;;;;3.60;2.50;;;;;;;23.58;50.66;102212.03;5025332;28;20049;-70
2023/08/10 04:44:18;;;;;;;4.63;2.50;;;;;;;22.98;53.13;102212.69;5024316;28;20033;-72
2023/08/10 04:46:44;;;;;;;6.57;2.38;;;;;;;23.51;52.22;102206.94;5012775;28;20067;-71
2023/08/10 04:49:10;;;;;;;5.40;2.55;;;;;;;23.39;52.64;102207.47;5020765;28;20018;-72
2023/08/10 04:51:36;;;;;;;3.70;2.60;;;;;;;23.55;51.65;102203.19;5025437;28;20030;-71
2023/08/10 04:54:01;;;;;;;5.13;2.53;;;;;;;23.58;52.04;102207.53;5038676;28;20036;-71
2023/08/10 04:56:27;;;;;;;3.10;2.42;;;;;;;23.72;51.65;102212.28;5029039;28;20038;-71
2023/08/10 04:58:52;;;;;;;4.75;2.97;;;;;;;23.28;52.80;102201.72;5048238;28;20048;-71
2023/08/10 05:01:18;;;;;;;7.53;2.65;;;;;;;23.40;52.92;102211.88;5023968;28;20021;-71
2023/08/10 05:03:43;;;;;;;5.85;2.88;;;;;;;23.12;54.40;102206.78;5031860;28;20044;-71
2023/08/10 05:06:09;;;;;;;3.78;2.75;;;;;;;23.20;54.18;102213.59;5049392;28;20071;-71
2023/08/10 05:08:38;;;;;;;5.22;3.40;;;;;;;23.37;53.64;102204.00;5027013;28;20125;-72
2023/08/10 05:11:04;;;;;;;5.85;2.60;;;;;;;23.44;54.24;102199.25;5014807;28;20018;-71
2023/08/10 05:13:29;;;;;;;4.38;2.92;;;;;;;23.38;54.61;102201.25;5036565;28;20025;-71
2023/08/10 05:15:54;;;;;;;7.03;3.05;;;;;;;23.78;53.71;102196.00;5016404;28;20022;-71
2023/08/10 05:18:23;;;;;;;6.95;3.00;;;;;;;24.04;52.31;102199.31;5032303;28;20474;-71
2023/08/10 05:20:49;;;;;;;4.93;3.00;;;;;;;24.51;51.49;102204.25;5048835;28;20025;-71
2023/08/10 05:23:15;;;;;;;5.95;3.08;;;;;;;24.40;51.40;102198.56;5043825;28;20037;-72
2023/08/10 05:25:41;;;;;;;6.28;3.38;;;;;;;24.11;52.09;102197.22;5012380;28;20026;-72
2023/08/10 05:28:06;;;;;;;4.75;2.83;;;;;;;24.15;51.90;102191.69;5016573;28;20022;-72
2023/08/10 05:30:32;;;;;;;9.90;3.28;;;;;;;24.27;52.24;102197.41;5032221;28;20025;-73
2023/08/10 05:33:00;;;;;;;5.57;2.80;;;;;;;24.67;51.82;102195.53;5032520;28;20029;-72
2023/08/10 05:35:25;;;;;;;5.18;2.90;;;;;;;24.81;50.92;102195.75;5032633;28;20040;-72
2023/08/10 05:37:51;;;;;;;4.20;3.10;;;;;;;24.41;52.39;102191.41;5027991;28;20498;-72
2023/08/10 05:40:16;;;;;;;5.40;2.85;;;;;;;24.70;51.33;102195.38;5012708;28;20120;-71
2023/08/10 05:42:42;;;;;;;6.05;3.15;;;;;;;24.51;52.13;102190.91;5028972;28;20113;-72
2023/08/10 05:45:09;;;;;;;4.60;2.97;;;;;;;24.06;53.17;102192.13;5022737;28;20490;-72
2023/08/10 05:47:37;;;;;;;6.00;3.40;;;;;;;24.29;52.79;102198.19;5031893;28;20117;-72
2023/08/10 05:50:03;;;;;;;13.32;3.28;;;;;;;24.37;52.91;102188.00;5027859;28;20060;-72
2023/08/10 05:52:29;;;;;;;5.68;3.50;;;;;;;23.71;55.27;102203.41;5031622;28;20486;-72
2023/08/10 05:54:55;;;;;;;7.22;2.85;;;;;;;23.61;55.85;102190.53;5025587;28;20025;-72
2023/08/10 05:57:20;;;;;;;4.18;2.70;;;;;;;23.75;55.50;102198.78;5011242;28;20050;-72
2023/08/10 05:59:46;;;;;;;5.68;3.45;;;;;;;24.03;54.38;102198.44;5028157;28;20021;-72
2023/08/10 06:02:11;;;;;;;5.13;3.15;;;;;;;23.86;54.80;102191.19;5027712;28;20554;-72
2023/08/10 06:04:37;;;;;;;3.75;2.80;;;;;;;23.77;55.11;102191.59;5011256;28;20072;-72
2023/08/10 06:07:02;;;;;;;6.30;2.65;;;;;;;23.75;54.72;102187.25;5030498;28;20039;-71
2023/08/10 06:09:28;;;;;;;5.18;3.00;;;;;;;24.53;53.43;102185.47;5047012;28;20049;-72
2023/08/10 06:11:54;;;;;;;4.00;2.13;;;;;;;24.01;54.28;102189.63;5033982;28;20205;-72
2023/08/10 06:14:20;;;;;;;3.58;2.75;;;;;;;24.64;52.39;102179.66;5031625;28;20022;-72
2023/08/10 06:16:45;;;;;;;4.57;2.90;;;;;;;24.21;52.86;102185.19;5013832;28;20026;-72
2023/08/10 06:19:10;;;;;;;5.78;2.78;;;;;;;23.93;54.34;102189.13;5026666;28;20030;-72
2023/08/10 06:21:36;;;;;;;5.05;2.85;;;;;;;23.29;55.01;102190.13;5027992;28;20025;-72
2023/08/10 06:24:06;;;;;;;5.28;2.78;;;;;;;24.35;51.64;102197.91;5046095;28;20083;-72
2023/08/10 06:26:33;;;;;;;3.35;2.65;;;;;;;24.32;52.51;102196.25;5047099;28;20029;-72
2023/08/10 06:28:59;;;;;;;5.07;2.70;;;;;;;24.20;52.57;102194.16;5045939;28;20131;-73
2023/08/10 06:31:24;;;;;;;4.07;2.45;;;;;;;25.20;50.65;102186.66;5034134;28;20532;-72
2023/08/10 06:33:50;;;;;;;5.35;2.60;;;;;;;25.29;50.15;102189.81;5029914;28;20033;-72
2023/08/10 06:36:15;;;;;;;6.40;2.70;;;;;;;25.17;49.92;102197.53;5026402;28;20096;-72
2023/08/10 06:38:41;;;;;;;7.57;2.50;;;;;;;23.81;53.67;102192.28;5040047;28;20075;-72
2023/08/10 06:41:06;;;;;;;3.78;2.45;;;;;;;25.00;50.41;102201.03;5020546;28;20030;-72
2023/08/10 06:43:31;;;;;;;4.70;2.38;;;;;;;25.11;50.73;102203.19;5021405;28;20067;-72
2023/08/10 06:45:58;;;;;;;3.33;2.03;;;;;;;25.10;50.26;102212.16;5046640;28;20048;-72
2023/08/10 06:48:24;;;;;;;4.80;2.40;;;;;;;25.44;48.86;102194.41;5029821;28;20048;-72
2023/08/10 06:50:49;;;;;;;3.58;2.70;;;;;;;25.17;48.59;102202.00;5038199;28;20022;-72
2023/08/10 06:53:15;;;;;;;4.05;2.05;;;;;;;25.11;47.83;102203.19;5029962;28;20030;-72
2023/08/10 06:55:42;;;;;;;3.75;2.13;;;;;;;25.81;46.58;102195.16;5031583;28;20120;-72
2023/08/10 06:58:23;;;;;;;11.20;3.20;;;;;;;25.62;45.81;102199.75;5128016;27;20172;-72
2023/08/10 07:00:49;;;;;;;6.07;2.60;;;;;;;24.85;48.17;102197.34;5088687;28;20540;-72
2023/08/10 07:03:14;;;;;;;3.25;2.22;;;;;;;25.95;46.35;102198.91;5090027;28;20034;-73
2023/08/10 07:05:42;;;;;;;6.18;2.40;;;;;;;25.54;46.21;102192.13;5089676;28;20071;-72
2023/08/10 07:08:08;;;;;;;4.93;2.53;;;;;;;25.54;45.99;102190.31;5106990;28;20032;-72
2023/08/10 07:10:35;;;;;;;3.22;2.30;;;;;;;25.78;44.61;102192.66;5089277;28;20043;-72
2023/08/10 07:13:01;;;;;;;5.10;2.83;;;;;;;24.99;45.45;102198.44;5089956;28;20030;-71
2023/08/10 07:15:26;;;;;;;3.83;2.63;;;;;;;26.13;44.04;102192.63;5088710;28;20019;-72
2023/08/10 07:17:51;;;;;;;4.78;2.30;;;;;;;25.36;44.34;102196.63;5089489;28;20514;-72
2023/08/10 07:20:18;;;;;;;3.13;2.10;;;;;;;25.59;43.82;102202.59;5089338;28;20028;-72
2023/08/10 07:22:45;;;;;;;3.10;2.03;;;;;;;26.31;42.72;102201.44;5089008;28;20035;-72
2023/08/10 07:25:11;;;;;;;2.53;1.60;;;;;;;26.60;41.97;102193.59;5106987;28;20028;-72
2023/08/10 07:27:37;;;;;;;3.05;1.85;;;;;;;26.17;42.95;102202.22;5085602;28;20063;-73
2023/08/10 07:30:05;;;;;;;2.10;1.58;;;;;;;26.24;41.49;102198.25;5082806;28;20114;-72
2023/08/10 07:32:31;;;;;;;5.13;1.85;;;;;;;24.81;44.31;102206.44;5088165;28;20493;-72
2023/08/10 07:34:57;;;;;;;6.43;2.00;;;;;;;26.69;41.13;102208.28;5089498;28;20111;-72
2023/08/10 07:37:22;;;;;;;4.50;1.75;;;;;;;26.18;41.69;102209.28;5088281;28;20434;-71
2023/08/10 07:39:48;;;;;;;2.92;1.88;;;;;;;25.85;42.48;102204.75;5087943;28;20399;-72
2023/08/10 07:42:13;;;;;;;5.38;1.85;;;;;;;26.42;41.33;102203.53;5089078;28;20065;-72
2023/08/10 07:44:39;;;;;;;3.30;1.50;;;;;;;26.43;41.30;102210.59;5106339;28;20024;-72
2023/08/10 07:47:04;;;;;;;2.22;1.23;;;;;;;26.36;40.84;102210.06;5105909;28;20475;-73
2023/08/10 07:49:31;;;;;;;3.33;1.50;;;;;;;25.47;42.44;102215.69;5088971;28;20031;-72
2023/08/10 07:51:57;;;;;;;5.78;1.27;;;;;;;26.54;40.82;102213.56;5087417;28;20051;-72
2023/08/10 07:54:22;;;;;;;1.60;1.30;;;;;;;25.88;41.90;102214.44;5086909;28;20081;-72
2023/08/10 07:56:48;;;;;;;2.05;1.30;;;;;;;26.68;39.97;102207.44;5090761;28;20436;-72
2023/08/10 07:59:13;;;;;;;2.05;1.30;;;;;;;26.18;40.56;102217.31;5101835;28;20035;-72
2023/08/10 08:01:39;;;;;;;4.10;1.60;;;;;;;26.82;40.42;102216.50;5091705;28;20590;-72
2023/08/10 08:04:05;;;;;;;3.05;1.45;;;;;;;28.32;38.29;102215.66;5105281;28;20102;-72
2023/08/10 08:06:37;;;;;;;3.17;1.35;;;;;;;27.69;39.03;102215.03;5104982;28;20024;-72
2023/08/10 08:09:07;;;;;;;3.60;1.50;;;;;;;27.75;37.79;102220.00;5092996;28;20390;-73
2023/08/10 08:11:34;;;;;;;4.05;1.23;;;;;;;28.71;37.15;102216.72;5091763;28;20345;-72
2023/08/10 08:14:01;;;;;;;2.45;1.33;;;;;;;28.71;37.03;102222.97;5072039;28;20028;-74
2023/08/10 08:16:26;;;;;;;4.07;1.20;;;;;;;27.15;39.48;102220.88;5077668;28;20115;-72
2023/08/10 08:18:55;;;;;;;4.45;1.60;;;;;;;28.16;37.94;102227.34;5090316;28;20559;-72
2023/08/10 08:21:25;;;;;;;1.27;1.17;;;;;;;27.72;38.67;102230.94;5092841;28;20097;-72
2023/08/10 08:23:52;;;;;;;2.03;1.30;;;;;;;27.82;40.16;102232.13;5091170;28;20089;-72
2023/08/10 08:26:19;;;;;;;2.25;1.35;;;;;;;27.00;39.96;102234.25;5090735;28;20032;-72
2023/08/10 08:28:46;;;;;;;3.25;1.35;;;;;;;28.77;36.82;102227.09;5090696;28;20115;-72
2023/08/10 08:31:11;;;;;;;2.70;1.45;;;;;;;27.43;38.55;102229.06;5091274;28;20039;-72
2023/08/10 08:33:38;;;;;;;3.60;1.67;;;;;;;27.12;39.01;102240.72;5091394;28;20036;-72
2023/08/10 08:36:04;;;;;;;3.13;1.50;;;;;;;26.44;39.63;102228.41;5091874;28;20032;-72
2023/08/10 08:38:32;;;;;;;4.88;1.60;;;;;;;26.44;39.78;102232.94;5090669;28;20036;-72
2023/08/10 08:40:58;;;;;;;2.58;1.70;;;;;;;28.05;37.38;102224.47;5090998;28;20050;-71
2023/08/10 08:43:24;;;;;;;3.08;1.80;;;;;;;27.08;38.30;102229.28;5090740;28;20028;-72
2023/08/10 08:45:49;;;;;;;2.42;1.88;;;;;;;26.38;38.97;102234.13;5091169;28;20500;-73
2023/08/10 08:48:17;;;;;;;1.75;1.60;;;;;;;26.30;39.80;102236.38;5078011;28;20032;-72
2023/08/10 08:50:45;;;;;;;3.25;1.63;;;;;;;27.01;37.46;102221.69;5087412;28;20431;-72
2023/08/10 08:53:12;;;;;;;3.25;1.60;;;;;;;26.79;38.41;102225.63;5090904;28;20038;-72
2023/08/10 08:55:38;;;;;;;2.75;2.17;;;;;;;28.06;36.58;102220.84;5089401;28;20032;-72
2023/08/10 08:58:05;;;;;;;4.20;1.60;;;;;;;27.52;37.30;102226.78;5068965;28;20069;-72
2023/08/10 09:00:31;;;;;;;2.80;1.63;;;;;;;27.85;36.43;102221.19;5065090;28;20142;-72
2023/08/10 09:02:58;;;;;;;5.07;1.98;;;;;;;29.05;35.50;102219.88;5054151;28;20040;-73
2023/08/10 09:05:24;;;;;;;6.22;2.15;;;;;;;28.82;35.23;102222.25;5034459;28;20676;-72
2023/08/10 09:07:50;;;;;;;4.55;1.70;;;;;;;28.39;36.11;102216.97;5055053;28;20025;-72
2023/08/10 09:10:17;;;;;;;2.90;1.80;;;;;;;28.15;35.94;102217.59;5054173;28;20028;-72
2023/08/10 09:12:42;;;;;;;3.65;1.77;;;;;;;29.14;35.24;102218.38;5068806;28;20024;-72
2023/08/10 09:15:13;;;;;;;4.00;1.90;;;;;;;29.01;35.37;102213.84;5052678;28;20480;-73
2023/08/10 09:17:59;;;;;;;3.75;1.65;;;;;;;28.76;35.41;102220.00;5052772;28;20545;-72
2023/08/10 09:20:27;;;;;;;5.38;2.40;;;;;;;29.54;33.48;102216.56;5052277;28;20127;-73
2023/08/10 09:22:55;;;;;;;4.50;2.17;;;;;;;29.80;34.10;102216.59;5048477;28;20953;-72
2023/08/10 09:25:21;;;;;;;3.85;2.40;;;;;;;30.35;33.97;102221.72;5061997;28;20045;-73
2023/08/10 09:27:48;;;;;;;6.60;2.25;;;;;;;30.02;33.83;102215.09;5043035;28;20032;-73
2023/08/10 09:30:15;;;;;;;5.78;3.25;;;;;;;29.26;35.50;102212.22;5050548;28;20090;-73
2023/08/10 09:32:41;;;;;;;5.25;2.50;;;;;;;29.66;34.85;102208.59;5048580;28;20056;-73
2023/08/10 09:35:18;;;;;;;5.93;2.70;;;;;;;30.77;32.86;102206.06;5050063;28;20069;-73
2023/08/10 09:37:46;;;;;;;4.07;2.33;;;;;;;29.74;34.56;102217.84;5051771;28;20033;-74
2023/08/10 09:40:14;;;;;;;5.00;2.20;;;;;;;29.23;35.02;102225.84;5052309;28;20021;-72
2023/08/10 09:42:40;;;;;;;4.18;2.80;;;;;;;29.99;34.78;102226.09;5069954;28;20066;-73
2023/08/10 09:45:08;;;;;;;5.65;2.55;;;;;;;29.60;34.69;102216.13;5050121;28;20113;-73
2023/08/10 09:47:37;;;;;;;3.50;2.45;;;;;;;30.22;34.50;102210.97;5052817;28;20027;-73
2023/08/10 09:50:05;;;;;;;6.68;2.70;;;;;;;29.97;33.62;102225.34;5050768;28;20041;-73
2023/08/10 09:52:33;;;;;;;4.10;2.60;;;;;;;29.12;34.61;102229.25;5034137;28;20032;-73
2023/08/10 09:54:59;;;;;;;7.78;2.58;;;;;;;28.72;35.34;102229.22;5047279;28;20028;-72
2023/08/10 09:57:27;;;;;;;4.75;2.65;;;;;;;28.66;35.84;102232.31;5072732;28;20112;-72
2023/08/10 09:59:53;;;;;;;6.53;2.75;;;;;;;29.21;35.25;102233.16;5086700;28;20028;-72
2023/08/10 10:02:20;;;;;;;8.70;2.97;;;;;;;29.55;35.63;102229.09;5089350;28;20069;-72
2023/08/10 10:04:47;;;;;;;10.00;2.60;;;;;;;29.99;33.90;102226.94;5078973;28;20028;-72
2023/08/10 10:07:13;;;;;;;6.05;2.80;;;;;;;29.37;35.29;102231.19;5089942;28;20019;-73
2023/08/10 10:09:43;;;;;;;4.75;2.17;;;;;;;30.55;34.05;102223.00;5089403;28;20019;-72
2023/08/10 10:12:13;;;;;;;5.97;2.90;;;;;;;30.92;33.21;102218.41;5085759;28;20025;-72
2023/08/10 10:14:41;;;;;;;4.82;2.78;;;;;;;29.44;35.06;102220.84;5082088;28;20027;-72
2023/08/10 10:17:09;;;;;;;5.75;3.00;;;;;;;29.86;35.28;102221.56;5089981;28;20365;-72
2023/08/10 10:19:35;;;;;;;3.75;2.85;;;;;;;28.59;36.65;102218.34;5069134;28;20021;-72
2023/08/10 10:22:02;;;;;;;5.55;3.05;;;;;;;30.22;34.91;102211.81;5071117;28;20392;-72
2023/08/10 10:24:29;;;;;;;4.57;2.50;;;;;;;30.11;33.71;102220.66;5090784;28;20024;-72
2023/08/10 10:27:05;;;;;;;5.22;2.88;;;;;;;31.10;32.99;102213.47;5089274;28;20026;-72
2023/08/10 10:29:43;;;;;;;4.57;2.80;;;;;;;32.32;31.78;102215.81;5087454;28;20055;-72
2023/08/10 10:32:16;;;;;;;5.18;3.00;;;;;;;31.30;32.61;102213.81;5070456;28;20091;-72
2023/08/10 10:34:43;;;;;;;4.68;3.22;;;;;;;31.28;32.16;102216.63;5089587;28;20028;-72
2023/08/10 10:37:16;;;;;;;4.45;2.58;;;;;;;32.15;32.08;102215.31;5089240;28;20513;-72
2023/08/10 10:39:43;;;;;;;4.07;2.90;;;;;;;31.79;32.13;102215.41;5088724;28;20055;-72
2023/08/10 10:42:15;;;;;;;7.97;3.67;;;;;;;32.37;31.58;102213.56;5089105;28;20513;-73
2023/08/10 10:45:03;;;;;;;6.18;3.25;;;;;;;31.21;32.27;102220.75;5087477;28;20024;-72
2023/08/10 10:47:47;;;;;;;5.70;3.38;;;;;;;30.79;32.84;102217.63;5087771;28;20059;-73
2023/08/10 10:50:33;;;;;;;6.95;3.58;;;;;;;31.85;31.66;102219.47;5089082;28;20492;-73
2023/08/10 10:53:07;;;;;;;8.88;3.65;;;;;;;31.37;33.22;102220.44;5079523;28;20044;-72
2023/08/10 10:55:35;;;;;;;10.32;3.75;;;;;;;32.77;31.38;102221.13;5082459;28;20369;-72
2023/08/10 10:58:02;;;;;;;4.07;2.83;;;;;;;33.71;30.66;102217.72;5069172;28;20045;-72
2023/08/10 11:00:28;;;;;;;6.88;3.42;;;;;;;32.84;30.77;102213.34;5043866;28;20032;-73
2023/08/10 11:02:55;;;;;;;5.70;3.53;;;;;;;33.52;29.70;102205.75;5052105;28;20123;-73
2023/08/10 11:05:20;;;;;;;7.13;2.90;;;;;;;32.05;31.72;102219.72;5051644;28;20320;-72
2023/08/10 11:07:48;;;;;;;7.47;3.53;;;;;;;31.78;31.07;102207.44;5033786;28;20127;-72
2023/08/10 11:10:15;;;;;;;6.57;3.50;;;;;;;32.01;30.73;102210.97;5051656;28;20032;-72
2023/08/10 11:12:42;;;;;;;7.95;3.33;;;;;;;32.24;31.22;102203.75;5051018;28;20559;-72
2023/08/10 11:15:13;;;;;;;6.90;3.35;;;;;;;32.68;30.29;102200.22;5068886;28;20032;-73
2023/08/10 11:17:41;;;;;;;5.20;2.70;;;;;;;32.79;30.72;102208.31;5050973;28;20043;-72
2023/08/10 11:20:12;;;;;;;4.25;3.08;;;;;;;31.89;30.22;102203.84;5070252;28;20021;-73
2023/08/10 11:22:42;;;;;;;9.05;3.28;;;;;;;32.80;30.15;102210.06;5044690;28;20037;-73
2023/08/10 11:25:17;;;;;;;5.03;3.08;;;;;;;33.67;29.91;102202.72;5049729;28;20070;-76